sensor_id;sensor_type;location;lat;lon;timestamp;P1;durP1;ratioP1;P2;durP2;ratioP2
62202;SDS011;48199;49.138;7.414;2023-11-21T00:00:09;5.88;;;1.90;;
62202;SDS011;48199;49.138;7.414;2023-11-21T00:02:37;3.33;;;1.50;;
62202;SDS011;48199;49.138;7.414;2023-11-21T00:05:05;3.88;;;2.00;;
62202;SDS011;48199;49.138;7.414;2023-11-21T00:07:31;5.28;;;1.77;;
62202;SDS011;48199;49.138;7.414;2023-11-21T00:09:56;6.03;;;1.90;;
62202;SDS011;48199;49.138;7.414;2023-11-21T00:12:22;7.43;;;2.03;;
62202;SDS011;48199;49.138;7.414;2023-11-21T00:14:47;4.53;;;2.00;;
62202;SDS011;48199;49.138;7.414;2023-11-21T00:17:12;4.30;;;1.80;;
62202;SDS011;48199;49.138;7.414;2023-11-21T00:19:37;4.60;;;1.77;;
62202;SDS011;48199;49.138;7.414;2023-11-21T00:22:03;3.23;;;1.43;;
62202;SDS011;48199;49.138;7.414;2023-11-21T00:24:28;2.40;;;1.40;;
62202;SDS011;48199;49.138;7.414;2023-11-21T00:26:53;2.53;;;1.08;;
62202;SDS011;48199;49.138;7.414;2023-11-21T00:29:19;2.72;;;1.15;;
62202;SDS011;48199;49.138;7.414;2023-11-21T00:31:44;1.40;;;1.20;;
62202;SDS011;48199;49.138;7.414;2023-11-21T00:34:10;1.05;;;0.95;;
62202;SDS011;48199;49.138;7.414;2023-11-21T00:36:36;2.42;;;1.33;;
62202;SDS011;48199;49.138;7.414;2023-11-21T00:39:01;4.10;;;1.20;;
62202;SDS011;48199;49.138;7.414;2023-11-21T00:41:28;5.38;;;1.45;;
62202;SDS011;48199;49.138;7.414;2023-11-21T00:43:54;5.05;;;1.60;;
62202;SDS011;48199;49.138;7.414;2023-11-21T00:46:20;3.47;;;1.55;;
62202;SDS011;48199;49.138;7.414;2023-11-21T00:48:45;3.90;;;1.67;;
62202;SDS011;48199;49.138;7.414;2023-11-21T00:51:10;5.13;;;2.00;;
62202;SDS011;48199;49.138;7.414;2023-11-21T00:53:35;3.53;;;1.97;;
62202;SDS011;48199;49.138;7.414;2023-11-21T00:56:01;8.17;;;1.80;;
62202;SDS011;48199;49.138;7.414;2023-11-21T00:58:26;6.57;;;1.80;;
62202;SDS011;48199;49.138;7.414;2023-11-21T01:00:51;5.20;;;1.77;;
62202;SDS011;48199;49.138;7.414;2023-11-21T01:03:17;4.25;;;2.10;;
62202;SDS011;48199;49.138;7.414;2023-11-21T01:05:42;3.80;;;1.92;;
62202;SDS011;48199;49.138;7.414;2023-11-21T01:08:07;6.30;;;2.53;;
62202;SDS011;48199;49.138;7.414;2023-11-21T01:10:32;3.83;;;2.00;;
62202;SDS011;48199;49.138;7.414;2023-11-21T01:12:59;3.88;;;2.13;;
62202;SDS011;48199;49.138;7.414;2023-11-21T01:15:24;8.82;;;2.08;;
62202;SDS011;48199;49.138;7.414;2023-11-21T01:17:51;4.93;;;1.70;;
62202;SDS011;48199;49.138;7.414;2023-11-21T01:20:16;7.53;;;1.73;;
62202;SDS011;48199;49.138;7.414;2023-11-21T01:22:42;10.07;;;2.22;;
62202;SDS011;48199;49.138;7.414;2023-11-21T01:25:08;6.57;;;1.50;;
62202;SDS011;48199;49.138;7.414;2023-11-21T01:27:33;5.88;;;1.70;;
62202;SDS011;48199;49.138;7.414;2023-11-21T01:29:59;5.38;;;1.50;;
62202;SDS011;48199;49.138;7.414;2023-11-21T01:32:24;4.70;;;1.53;;
62202;SDS011;48199;49.138;7.414;2023-11-21T01:34:49;3.37;;;1.73;;
62202;SDS011;48199;49.138;7.414;2023-11-21T01:37:15;3.13;;;1.73;;
62202;SDS011;48199;49.138;7.414;2023-11-21T01:39:42;3.78;;;1.23;;
62202;SDS011;48199;49.138;7.414;2023-11-21T01:42:07;3.80;;;1.70;;
62202;SDS011;48199;49.138;7.414;2023-11-21T01:44:32;3.60;;;1.77;;
62202;SDS011;48199;49.138;7.414;2023-11-21T01:46:58;4.47;;;1.80;;
62202;SDS011;48199;49.138;7.414;2023-11-21T01:49:23;3.70;;;2.22;;
62202;SDS011;48199;49.138;7.414;2023-11-21T01:51:49;3.95;;;1.92;;
62202;SDS011;48199;49.138;7.414;2023-11-21T01:54:15;6.53;;;1.55;;
62202;SDS011;48199;49.138;7.414;2023-11-21T01:56:42;6.93;;;2.50;;
62202;SDS011;48199;49.138;7.414;2023-11-21T01:59:07;4.28;;;2.17;;
62202;SDS011;48199;49.138;7.414;2023-11-21T02:01:33;3.20;;;2.10;;
62202;SDS011;48199;49.138;7.414;2023-11-21T02:03:59;3.20;;;2.38;;
62202;SDS011;48199;49.138;7.414;2023-11-21T02:06:24;3.20;;;2.03;;
62202;SDS011;48199;49.138;7.414;2023-11-21T02:08:49;6.68;;;2.40;;
62202;SDS011;48199;49.138;7.414;2023-11-21T02:11:15;4.28;;;2.38;;
62202;SDS011;48199;49.138;7.414;2023-11-21T02:13:41;6.65;;;2.65;;
62202;SDS011;48199;49.138;7.414;2023-11-21T02:16:08;6.22;;;2.15;;
62202;SDS011;48199;49.138;7.414;2023-11-21T02:18:34;5.07;;;2.10;;
62202;SDS011;48199;49.138;7.414;2023-11-21T02:20:59;8.67;;;2.60;;
62202;SDS011;48199;49.138;7.414;2023-11-21T02:23:27;2.88;;;2.13;;
62202;SDS011;48199;49.138;7.414;2023-11-21T02:25:53;2.25;;;1.80;;
62202;SDS011;48199;49.138;7.414;2023-11-21T02:28:19;7.13;;;2.28;;
62202;SDS011;48199;49.138;7.414;2023-11-21T02:30:50;3.90;;;2.10;;
62202;SDS011;48199;49.138;7.414;2023-11-21T02:33:20;6.95;;;2.13;;
62202;SDS011;48199;49.138;7.414;2023-11-21T02:35:45;5.00;;;2.10;;
62202;SDS011;48199;49.138;7.414;2023-11-21T02:38:11;4.88;;;2.13;;
62202;SDS011;48199;49.138;7.414;2023-11-21T02:40:37;4.15;;;2.22;;
62202;SDS011;48199;49.138;7.414;2023-11-21T02:43:02;4.50;;;2.47;;
62202;SDS011;48199;49.138;7.414;2023-11-21T02:45:27;5.93;;;2.60;;
62202;SDS011;48199;49.138;7.414;2023-11-21T02:47:52;7.30;;;1.90;;
62202;SDS011;48199;49.138;7.414;2023-11-21T02:50:21;4.63;;;2.20;;
62202;SDS011;48199;49.138;7.414;2023-11-21T02:52:47;5.10;;;2.72;;
62202;SDS011;48199;49.138;7.414;2023-11-21T02:55:12;3.20;;;2.33;;
62202;SDS011;48199;49.138;7.414;2023-11-21T02:57:38;4.27;;;2.80;;
62202;SDS011;48199;49.138;7.414;2023-11-21T03:00:03;7.40;;;3.37;;
62202;SDS011;48199;49.138;7.414;2023-11-21T03:02:32;4.25;;;2.47;;
62202;SDS011;48199;49.138;7.414;2023-11-21T03:04:57;3.17;;;2.60;;
62202;SDS011;48199;49.138;7.414;2023-11-21T03:07:22;6.17;;;3.27;;
62202;SDS011;48199;49.138;7.414;2023-11-21T03:09:47;7.93;;;3.00;;
62202;SDS011;48199;49.138;7.414;2023-11-21T03:12:13;4.80;;;3.17;;
62202;SDS011;48199;49.138;7.414;2023-11-21T03:14:39;4.90;;;3.40;;
62202;SDS011;48199;49.138;7.414;2023-11-21T03:17:04;6.35;;;3.63;;
62202;SDS011;48199;49.138;7.414;2023-11-21T03:19:30;3.97;;;3.13;;
62202;SDS011;48199;49.138;7.414;2023-11-21T03:21:55;5.88;;;3.30;;
62202;SDS011;48199;49.138;7.414;2023-11-21T03:24:20;5.47;;;3.60;;
62202;SDS011;48199;49.138;7.414;2023-11-21T03:26:47;7.00;;;3.58;;
62202;SDS011;48199;49.138;7.414;2023-11-21T03:29:12;8.23;;;3.90;;
62202;SDS011;48199;49.138;7.414;2023-11-21T03:31:38;6.60;;;3.92;;
62202;SDS011;48199;49.138;7.414;2023-11-21T03:34:03;7.68;;;4.25;;
62202;SDS011;48199;49.138;7.414;2023-11-21T03:36:28;6.83;;;4.10;;
62202;SDS011;48199;49.138;7.414;2023-11-21T03:38:54;6.82;;;4.40;;
62202;SDS011;48199;49.138;7.414;2023-11-21T03:41:20;8.00;;;4.43;;
62202;SDS011;48199;49.138;7.414;2023-11-21T03:43:45;6.53;;;4.70;;
62202;SDS011;48199;49.138;7.414;2023-11-21T03:46:10;6.97;;;4.30;;
62202;SDS011;48199;49.138;7.414;2023-11-21T03:48:37;7.53;;;5.13;;
62202;SDS011;48199;49.138;7.414;2023-11-21T03:51:02;5.37;;;3.93;;
62202;SDS011;48199;49.138;7.414;2023-11-21T03:53:28;6.50;;;4.47;;
62202;SDS011;48199;49.138;7.414;2023-11-21T03:55:53;5.90;;;3.63;;
62202;SDS011;48199;49.138;7.414;2023-11-21T03:58:18;9.13;;;4.77;;
62202;SDS011;48199;49.138;7.414;2023-11-21T04:00:43;5.33;;;4.23;;
62202;SDS011;48199;49.138;7.414;2023-11-21T04:03:08;6.37;;;4.17;;
62202;SDS011;48199;49.138;7.414;2023-11-21T04:05:34;5.10;;;3.77;;
62202;SDS011;48199;49.138;7.414;2023-11-21T04:07:59;7.07;;;3.73;;
62202;SDS011;48199;49.138;7.414;2023-11-21T04:10:24;5.37;;;3.47;;
62202;SDS011;48199;49.138;7.414;2023-11-21T04:12:49;6.63;;;4.20;;
62202;SDS011;48199;49.138;7.414;2023-11-21T04:15:14;10.45;;;4.18;;
62202;SDS011;48199;49.138;7.414;2023-11-21T04:17:40;5.83;;;4.13;;
62202;SDS011;48199;49.138;7.414;2023-11-21T04:20:05;6.18;;;3.83;;
62202;SDS011;48199;49.138;7.414;2023-11-21T04:22:34;8.10;;;3.97;;
62202;SDS011;48199;49.138;7.414;2023-11-21T04:24:59;5.53;;;3.63;;
62202;SDS011;48199;49.138;7.414;2023-11-21T04:27:24;5.20;;;3.70;;
62202;SDS011;48199;49.138;7.414;2023-11-21T04:29:49;6.07;;;3.97;;
62202;SDS011;48199;49.138;7.414;2023-11-21T04:32:14;5.83;;;4.20;;
62202;SDS011;48199;49.138;7.414;2023-11-21T04:34:40;5.97;;;3.77;;
62202;SDS011;48199;49.138;7.414;2023-11-21T04:37:05;4.97;;;3.47;;
62202;SDS011;48199;49.138;7.414;2023-11-21T04:39:31;5.57;;;3.42;;
62202;SDS011;48199;49.138;7.414;2023-11-21T04:41:56;6.38;;;3.80;;
62202;SDS011;48199;49.138;7.414;2023-11-21T04:44:22;5.78;;;3.92;;
62202;SDS011;48199;49.138;7.414;2023-11-21T04:46:47;6.73;;;4.33;;
62202;SDS011;48199;49.138;7.414;2023-11-21T04:49:12;5.27;;;3.93;;
62202;SDS011;48199;49.138;7.414;2023-11-21T04:51:37;4.82;;;4.03;;
62202;SDS011;48199;49.138;7.414;2023-11-21T04:54:03;7.47;;;4.13;;
62202;SDS011;48199;49.138;7.414;2023-11-21T04:56:28;7.00;;;4.70;;
62202;SDS011;48199;49.138;7.414;2023-11-21T04:58:53;6.03;;;4.63;;
62202;SDS011;48199;49.138;7.414;2023-11-21T05:01:18;6.72;;;4.90;;
62202;SDS011;48199;49.138;7.414;2023-11-21T05:03:44;6.85;;;4.05;;
62202;SDS011;48199;49.138;7.414;2023-11-21T05:06:09;6.30;;;4.67;;
62202;SDS011;48199;49.138;7.414;2023-11-21T05:08:35;7.30;;;4.97;;
62202;SDS011;48199;49.138;7.414;2023-11-21T05:11:02;6.40;;;4.47;;
62202;SDS011;48199;49.138;7.414;2023-11-21T05:13:27;7.97;;;4.38;;
62202;SDS011;48199;49.138;7.414;2023-11-21T05:15:54;6.33;;;4.37;;
62202;SDS011;48199;49.138;7.414;2023-11-21T05:18:19;7.93;;;4.40;;
62202;SDS011;48199;49.138;7.414;2023-11-21T05:20:44;6.68;;;4.88;;
62202;SDS011;48199;49.138;7.414;2023-11-21T05:23:09;6.63;;;4.37;;
62202;SDS011;48199;49.138;7.414;2023-11-21T05:25:35;10.80;;;5.13;;
62202;SDS011;48199;49.138;7.414;2023-11-21T05:28:01;7.85;;;3.97;;
62202;SDS011;48199;49.138;7.414;2023-11-21T05:30:27;7.85;;;5.18;;
62202;SDS011;48199;49.138;7.414;2023-11-21T05:32:53;8.05;;;4.45;;
62202;SDS011;48199;49.138;7.414;2023-11-21T05:35:18;6.65;;;4.40;;
62202;SDS011;48199;49.138;7.414;2023-11-21T05:37:44;6.47;;;4.03;;
62202;SDS011;48199;49.138;7.414;2023-11-21T05:40:09;5.28;;;4.22;;
62202;SDS011;48199;49.138;7.414;2023-11-21T05:42:35;5.43;;;3.60;;
62202;SDS011;48199;49.138;7.414;2023-11-21T05:45:01;6.88;;;4.22;;
62202;SDS011;48199;49.138;7.414;2023-11-21T05:47:39;8.45;;;3.40;;
62202;SDS011;48199;49.138;7.414;2023-11-21T05:50:05;6.88;;;3.97;;
62202;SDS011;48199;49.138;7.414;2023-11-21T05:52:31;6.55;;;3.92;;
62202;SDS011;48199;49.138;7.414;2023-11-21T05:54:57;5.68;;;3.17;;
62202;SDS011;48199;49.138;7.414;2023-11-21T05:57:23;5.82;;;2.92;;
62202;SDS011;48199;49.138;7.414;2023-11-21T05:59:48;2.60;;;1.90;;
62202;SDS011;48199;49.138;7.414;2023-11-21T06:02:13;3.07;;;2.27;;
62202;SDS011;48199;49.138;7.414;2023-11-21T06:04:38;6.00;;;2.23;;
62202;SDS011;48199;49.138;7.414;2023-11-21T06:07:03;1.93;;;1.53;;
62202;SDS011;48199;49.138;7.414;2023-11-21T06:09:29;4.15;;;1.67;;
62202;SDS011;48199;49.138;7.414;2023-11-21T06:11:54;2.43;;;1.37;;
62202;SDS011;48199;49.138;7.414;2023-11-21T06:14:19;1.70;;;1.25;;
62202;SDS011;48199;49.138;7.414;2023-11-21T06:16:47;1.25;;;1.15;;
62202;SDS011;48199;49.138;7.414;2023-11-21T06:19:12;2.38;;;1.20;;
62202;SDS011;48199;49.138;7.414;2023-11-21T06:21:37;2.17;;;1.35;;
62202;SDS011;48199;49.138;7.414;2023-11-21T06:24:03;2.38;;;1.30;;
62202;SDS011;48199;49.138;7.414;2023-11-21T06:26:29;1.50;;;1.20;;
62202;SDS011;48199;49.138;7.414;2023-11-21T06:28:54;3.20;;;0.77;;
62202;SDS011;48199;49.138;7.414;2023-11-21T06:31:20;1.63;;;0.95;;
62202;SDS011;48199;49.138;7.414;2023-11-21T06:33:46;2.97;;;1.00;;
62202;SDS011;48199;49.138;7.414;2023-11-21T06:36:12;1.23;;;1.03;;
62202;SDS011;48199;49.138;7.414;2023-11-21T06:38:37;2.63;;;1.00;;
62202;SDS011;48199;49.138;7.414;2023-11-21T06:41:02;1.23;;;0.82;;
62202;SDS011;48199;49.138;7.414;2023-11-21T06:43:29;1.45;;;0.60;;
62202;SDS011;48199;49.138;7.414;2023-11-21T06:45:56;1.65;;;0.90;;
62202;SDS011;48199;49.138;7.414;2023-11-21T06:48:21;1.90;;;0.73;;
62202;SDS011;48199;49.138;7.414;2023-11-21T06:50:46;0.70;;;0.63;;
62202;SDS011;48199;49.138;7.414;2023-11-21T06:53:11;2.03;;;0.70;;
62202;SDS011;48199;49.138;7.414;2023-11-21T06:55:38;4.20;;;1.20;;
62202;SDS011;48199;49.138;7.414;2023-11-21T06:58:03;2.00;;;0.90;;
62202;SDS011;48199;49.138;7.414;2023-11-21T07:00:30;1.45;;;0.77;;
62202;SDS011;48199;49.138;7.414;2023-11-21T07:02:55;0.90;;;0.77;;
62202;SDS011;48199;49.138;7.414;2023-11-21T07:05:20;1.85;;;0.82;;
62202;SDS011;48199;49.138;7.414;2023-11-21T07:07:46;1.10;;;0.70;;
62202;SDS011;48199;49.138;7.414;2023-11-21T07:10:13;1.83;;;0.98;;
62202;SDS011;48199;49.138;7.414;2023-11-21T07:12:38;2.00;;;1.10;;
62202;SDS011;48199;49.138;7.414;2023-11-21T07:15:04;1.83;;;1.13;;
62202;SDS011;48199;49.138;7.414;2023-11-21T07:17:32;3.03;;;1.10;;
62202;SDS011;48199;49.138;7.414;2023-11-21T07:19:57;1.52;;;1.23;;
62202;SDS011;48199;49.138;7.414;2023-11-21T07:22:22;2.70;;;1.10;;
62202;SDS011;48199;49.138;7.414;2023-11-21T07:24:48;1.23;;;1.10;;
62202;SDS011;48199;49.138;7.414;2023-11-21T07:27:13;0.85;;;0.80;;
62202;SDS011;48199;49.138;7.414;2023-11-21T07:29:38;1.40;;;1.20;;
62202;SDS011;48199;49.138;7.414;2023-11-21T07:32:04;1.17;;;1.08;;
62202;SDS011;48199;49.138;7.414;2023-11-21T07:34:30;2.10;;;1.50;;
62202;SDS011;48199;49.138;7.414;2023-11-21T07:36:55;1.30;;;1.02;;
62202;SDS011;48199;49.138;7.414;2023-11-21T07:39:21;1.10;;;0.98;;
62202;SDS011;48199;49.138;7.414;2023-11-21T07:41:46;3.17;;;1.60;;
62202;SDS011;48199;49.138;7.414;2023-11-21T07:44:13;2.15;;;1.25;;
62202;SDS011;48199;49.138;7.414;2023-11-21T07:46:39;2.10;;;1.00;;
62202;SDS011;48199;49.138;7.414;2023-11-21T07:49:05;1.38;;;1.05;;
62202;SDS011;48199;49.138;7.414;2023-11-21T07:51:30;3.17;;;1.00;;
62202;SDS011;48199;49.138;7.414;2023-11-21T07:53:56;1.63;;;1.20;;
62202;SDS011;48199;49.138;7.414;2023-11-21T07:56:21;3.47;;;1.30;;
62202;SDS011;48199;49.138;7.414;2023-11-21T07:58:46;3.23;;;1.70;;
62202;SDS011;48199;49.138;7.414;2023-11-21T08:01:11;2.42;;;1.60;;
62202;SDS011;48199;49.138;7.414;2023-11-21T08:03:37;2.97;;;1.75;;
62202;SDS011;48199;49.138;7.414;2023-11-21T08:06:02;3.97;;;2.25;;
62202;SDS011;48199;49.138;7.414;2023-11-21T08:08:30;3.22;;;2.42;;
62202;SDS011;48199;49.138;7.414;2023-11-21T08:10:57;3.45;;;2.22;;
62202;SDS011;48199;49.138;7.414;2023-11-21T08:13:25;2.87;;;1.60;;
62202;SDS011;48199;49.138;7.414;2023-11-21T08:15:50;4.53;;;1.75;;
62202;SDS011;48199;49.138;7.414;2023-11-21T08:18:16;3.85;;;2.10;;
62202;SDS011;48199;49.138;7.414;2023-11-21T08:20:42;2.72;;;1.77;;
62202;SDS011;48199;49.138;7.414;2023-11-21T08:23:07;2.38;;;1.70;;
62202;SDS011;48199;49.138;7.414;2023-11-21T08:25:32;3.23;;;1.70;;
62202;SDS011;48199;49.138;7.414;2023-11-21T08:27:59;2.85;;;1.95;;
62202;SDS011;48199;49.138;7.414;2023-11-21T08:30:24;4.43;;;2.23;;
62202;SDS011;48199;49.138;7.414;2023-11-21T08:32:50;2.90;;;1.90;;
62202;SDS011;48199;49.138;7.414;2023-11-21T08:35:17;6.78;;;2.20;;
62202;SDS011;48199;49.138;7.414;2023-11-21T08:37:42;3.50;;;2.00;;
62202;SDS011;48199;49.138;7.414;2023-11-21T08:40:08;2.28;;;1.80;;
62202;SDS011;48199;49.138;7.414;2023-11-21T08:42:34;4.80;;;1.90;;
62202;SDS011;48199;49.138;7.414;2023-11-21T08:45:00;2.83;;;1.83;;
62202;SDS011;48199;49.138;7.414;2023-11-21T08:47:25;2.78;;;1.77;;
62202;SDS011;48199;49.138;7.414;2023-11-21T08:49:51;2.03;;;1.65;;
62202;SDS011;48199;49.138;7.414;2023-11-21T08:52:18;2.40;;;1.90;;
62202;SDS011;48199;49.138;7.414;2023-11-21T08:54:43;6.80;;;1.90;;
62202;SDS011;48199;49.138;7.414;2023-11-21T08:57:10;2.45;;;1.60;;
62202;SDS011;48199;49.138;7.414;2023-11-21T08:59:35;3.03;;;1.83;;
62202;SDS011;48199;49.138;7.414;2023-11-21T09:02:01;3.13;;;1.63;;
62202;SDS011;48199;49.138;7.414;2023-11-21T09:04:26;3.73;;;1.87;;
62202;SDS011;48199;49.138;7.414;2023-11-21T09:06:52;3.35;;;1.10;;
62202;SDS011;48199;49.138;7.414;2023-11-21T09:09:17;2.33;;;1.00;;
62202;SDS011;48199;49.138;7.414;2023-11-21T09:11:42;2.03;;;1.17;;
62202;SDS011;48199;49.138;7.414;2023-11-21T09:14:09;2.13;;;1.50;;
62202;SDS011;48199;49.138;7.414;2023-11-21T09:16:35;3.50;;;1.58;;
62202;SDS011;48199;49.138;7.414;2023-11-21T09:19:00;1.77;;;1.25;;
62202;SDS011;48199;49.138;7.414;2023-11-21T09:21:25;2.67;;;1.40;;
62202;SDS011;48199;49.138;7.414;2023-11-21T09:23:50;2.17;;;1.20;;
62202;SDS011;48199;49.138;7.414;2023-11-21T09:26:16;3.90;;;1.17;;
62202;SDS011;48199;49.138;7.414;2023-11-21T09:28:43;3.08;;;0.98;;
62202;SDS011;48199;49.138;7.414;2023-11-21T09:31:12;1.40;;;0.70;;
62202;SDS011;48199;49.138;7.414;2023-11-21T09:33:37;2.38;;;1.25;;
62202;SDS011;48199;49.138;7.414;2023-11-21T09:36:03;1.77;;;1.10;;
62202;SDS011;48199;49.138;7.414;2023-11-21T09:38:29;1.50;;;0.90;;
62202;SDS011;48199;49.138;7.414;2023-11-21T09:40:55;1.27;;;0.90;;
62202;SDS011;48199;49.138;7.414;2023-11-21T09:43:20;1.75;;;1.10;;
62202;SDS011;48199;49.138;7.414;2023-11-21T09:45:46;1.90;;;1.10;;
62202;SDS011;48199;49.138;7.414;2023-11-21T09:48:12;1.88;;;1.20;;
62202;SDS011;48199;49.138;7.414;2023-11-21T09:50:40;1.65;;;1.23;;
62202;SDS011;48199;49.138;7.414;2023-11-21T09:53:13;2.38;;;1.25;;
62202;SDS011;48199;49.138;7.414;2023-11-21T09:55:45;1.67;;;0.95;;
62202;SDS011;48199;49.138;7.414;2023-11-21T09:58:11;7.05;;;1.77;;
62202;SDS011;48199;49.138;7.414;2023-11-21T10:00:39;2.95;;;1.08;;
62202;SDS011;48199;49.138;7.414;2023-11-21T10:03:05;1.95;;;0.75;;
62202;SDS011;48199;49.138;7.414;2023-11-21T10:05:30;1.23;;;0.80;;
62202;SDS011;48199;49.138;7.414;2023-11-21T10:07:59;1.70;;;0.88;;
62202;SDS011;48199;49.138;7.414;2023-11-21T10:10:24;1.35;;;1.00;;
62202;SDS011;48199;49.138;7.414;2023-11-21T10:12:50;2.40;;;0.98;;
62202;SDS011;48199;49.138;7.414;2023-11-21T10:15:21;1.10;;;1.00;;
62202;SDS011;48199;49.138;7.414;2023-11-21T10:17:46;1.55;;;1.08;;
62202;SDS011;48199;49.138;7.414;2023-11-21T10:20:14;2.03;;;1.20;;
62202;SDS011;48199;49.138;7.414;2023-11-21T10:22:42;2.55;;;1.15;;
62202;SDS011;48199;49.138;7.414;2023-11-21T10:25:09;3.58;;;1.40;;
62202;SDS011;48199;49.138;7.414;2023-11-21T10:27:34;3.22;;;1.70;;
62202;SDS011;48199;49.138;7.414;2023-11-21T10:30:03;2.75;;;1.30;;
62202;SDS011;48199;49.138;7.414;2023-11-21T10:32:29;4.30;;;1.83;;
62202;SDS011;48199;49.138;7.414;2023-11-21T10:34:57;3.42;;;1.63;;
62202;SDS011;48199;49.138;7.414;2023-11-21T10:37:24;2.53;;;1.30;;
62202;SDS011;48199;49.138;7.414;2023-11-21T10:39:50;3.53;;;1.52;;
62202;SDS011;48199;49.138;7.414;2023-11-21T10:42:15;5.33;;;1.73;;
62202;SDS011;48199;49.138;7.414;2023-11-21T10:44:42;2.03;;;1.15;;
62202;SDS011;48199;49.138;7.414;2023-11-21T10:47:09;4.43;;;1.90;;
62202;SDS011;48199;49.138;7.414;2023-11-21T10:49:36;2.53;;;1.63;;
62202;SDS011;48199;49.138;7.414;2023-11-21T10:52:02;2.15;;;1.35;;
62202;SDS011;48199;49.138;7.414;2023-11-21T10:54:28;5.05;;;1.35;;
62202;SDS011;48199;49.138;7.414;2023-11-21T10:56:57;2.87;;;1.60;;
62202;SDS011;48199;49.138;7.414;2023-11-21T10:59:23;2.05;;;1.60;;
62202;SDS011;48199;49.138;7.414;2023-11-21T11:01:51;2.35;;;1.35;;
62202;SDS011;48199;49.138;7.414;2023-11-21T11:04:18;3.00;;;1.63;;
62202;SDS011;48199;49.138;7.414;2023-11-21T11:06:43;1.92;;;1.45;;
62202;SDS011;48199;49.138;7.414;2023-11-21T11:09:12;2.58;;;1.30;;
62202;SDS011;48199;49.138;7.414;2023-11-21T11:11:39;2.55;;;1.25;;
62202;SDS011;48199;49.138;7.414;2023-11-21T11:14:06;2.78;;;1.50;;
62202;SDS011;48199;49.138;7.414;2023-11-21T11:16:31;2.63;;;1.20;;
62202;SDS011;48199;49.138;7.414;2023-11-21T11:18:57;2.90;;;1.20;;
62202;SDS011;48199;49.138;7.414;2023-11-21T11:29:18;2.38;;;1.23;;
62202;SDS011;48199;49.138;7.414;2023-11-21T11:34:32;3.42;;;1.55;;
62202;SDS011;48199;49.138;7.414;2023-11-21T11:37:07;1.73;;;1.23;;
62202;SDS011;48199;49.138;7.414;2023-11-21T11:39:39;3.45;;;1.30;;
62202;SDS011;48199;49.138;7.414;2023-11-21T11:42:07;4.10;;;1.38;;
62202;SDS011;48199;49.138;7.414;2023-11-21T11:55:01;5.93;;;1.40;;
62202;SDS011;48199;49.138;7.414;2023-11-21T11:57:29;3.70;;;1.02;;
62202;SDS011;48199;49.138;7.414;2023-11-21T12:00:33;8.63;;;1.50;;
62202;SDS011;48199;49.138;7.414;2023-11-21T12:02:52;1.73;;;1.27;;
62202;SDS011;48199;49.138;7.414;2023-11-21T12:05:18;2.60;;;1.30;;
62202;SDS011;48199;49.138;7.414;2023-11-21T12:10:16;1.67;;;1.20;;
62202;SDS011;48199;49.138;7.414;2023-11-21T12:12:45;2.42;;;1.13;;
62202;SDS011;48199;49.138;7.414;2023-11-21T12:15:11;2.63;;;1.67;;
62202;SDS011;48199;49.138;7.414;2023-11-21T12:17:37;2.78;;;1.15;;
62202;SDS011;48199;49.138;7.414;2023-11-21T12:20:04;2.85;;;1.55;;
62202;SDS011;48199;49.138;7.414;2023-11-21T12:22:30;2.30;;;1.10;;
62202;SDS011;48199;49.138;7.414;2023-11-21T12:24:56;2.33;;;1.50;;
62202;SDS011;48199;49.138;7.414;2023-11-21T12:27:21;3.25;;;1.00;;
62202;SDS011;48199;49.138;7.414;2023-11-21T12:29:46;6.03;;;1.48;;
62202;SDS011;48199;49.138;7.414;2023-11-21T12:32:11;2.37;;;1.13;;
62202;SDS011;48199;49.138;7.414;2023-11-21T12:34:37;2.50;;;1.27;;
62202;SDS011;48199;49.138;7.414;2023-11-21T12:37:03;1.85;;;1.20;;
62202;SDS011;48199;49.138;7.414;2023-11-21T12:39:29;2.97;;;1.40;;
62202;SDS011;48199;49.138;7.414;2023-11-21T12:41:54;5.73;;;1.63;;
62202;SDS011;48199;49.138;7.414;2023-11-21T12:44:19;2.80;;;1.20;;
62202;SDS011;48199;49.138;7.414;2023-11-21T12:46:44;4.00;;;1.38;;
62202;SDS011;48199;49.138;7.414;2023-11-21T12:49:11;2.60;;;1.17;;
62202;SDS011;48199;49.138;7.414;2023-11-21T12:51:42;2.40;;;1.10;;
62202;SDS011;48199;49.138;7.414;2023-11-21T12:54:07;4.10;;;1.20;;
62202;SDS011;48199;49.138;7.414;2023-11-21T12:56:37;1.92;;;1.00;;
62202;SDS011;48199;49.138;7.414;2023-11-21T12:59:03;2.70;;;1.00;;
62202;SDS011;48199;49.138;7.414;2023-11-21T13:01:29;1.90;;;0.88;;
62202;SDS011;48199;49.138;7.414;2023-11-21T13:03:59;2.17;;;1.10;;
62202;SDS011;48199;49.138;7.414;2023-11-21T13:06:25;2.95;;;0.90;;
62202;SDS011;48199;49.138;7.414;2023-11-21T13:08:51;1.73;;;0.88;;
62202;SDS011;48199;49.138;7.414;2023-11-21T13:11:16;1.52;;;0.80;;
62202;SDS011;48199;49.138;7.414;2023-11-21T13:13:42;2.40;;;0.80;;
62202;SDS011;48199;49.138;7.414;2023-11-21T13:16:11;2.58;;;1.38;;
62202;SDS011;48199;49.138;7.414;2023-11-21T13:18:36;2.28;;;1.05;;
62202;SDS011;48199;49.138;7.414;2023-11-21T13:21:03;4.55;;;0.80;;
62202;SDS011;48199;49.138;7.414;2023-11-21T13:23:39;2.75;;;1.00;;
62202;SDS011;48199;49.138;7.414;2023-11-21T13:26:05;1.98;;;1.00;;
62202;SDS011;48199;49.138;7.414;2023-11-21T13:28:31;5.03;;;1.05;;
62202;SDS011;48199;49.138;7.414;2023-11-21T13:30:58;4.28;;;1.10;;
62202;SDS011;48199;49.138;7.414;2023-11-21T13:33:27;2.55;;;1.00;;
62202;SDS011;48199;49.138;7.414;2023-11-21T13:35:53;3.40;;;1.00;;
62202;SDS011;48199;49.138;7.414;2023-11-21T13:38:20;3.50;;;0.98;;
62202;SDS011;48199;49.138;7.414;2023-11-21T13:40:50;5.82;;;0.95;;
62202;SDS011;48199;49.138;7.414;2023-11-21T13:43:18;2.08;;;0.90;;
62202;SDS011;48199;49.138;7.414;2023-11-21T13:45:45;3.63;;;0.80;;
62202;SDS011;48199;49.138;7.414;2023-11-21T13:48:11;2.78;;;0.75;;
62202;SDS011;48199;49.138;7.414;2023-11-21T13:50:41;5.32;;;1.00;;
62202;SDS011;48199;49.138;7.414;2023-11-21T13:53:18;3.78;;;1.05;;
62202;SDS011;48199;49.138;7.414;2023-11-21T13:55:48;4.95;;;1.13;;
62202;SDS011;48199;49.138;7.414;2023-11-21T13:58:14;4.25;;;1.40;;
62202;SDS011;48199;49.138;7.414;2023-11-21T14:00:44;3.88;;;1.48;;
62202;SDS011;48199;49.138;7.414;2023-11-21T14:03:13;1.83;;;1.05;;
62202;SDS011;48199;49.138;7.414;2023-11-21T14:05:47;4.80;;;1.20;;
62202;SDS011;48199;49.138;7.414;2023-11-21T14:08:19;1.75;;;0.90;;
62202;SDS011;48199;49.138;7.414;2023-11-21T14:10:46;5.80;;;1.25;;
62202;SDS011;48199;49.138;7.414;2023-11-21T14:13:16;4.68;;;1.10;;
62202;SDS011;48199;49.138;7.414;2023-11-21T14:15:41;2.10;;;1.13;;
62202;SDS011;48199;49.138;7.414;2023-11-21T14:18:10;2.05;;;1.25;;
62202;SDS011;48199;49.138;7.414;2023-11-21T14:20:38;4.25;;;1.15;;
62202;SDS011;48199;49.138;7.414;2023-11-21T14:23:04;1.10;;;0.90;;
62202;SDS011;48199;49.138;7.414;2023-11-21T14:25:32;2.30;;;1.38;;
62202;SDS011;48199;49.138;7.414;2023-11-21T14:27:58;2.25;;;1.35;;
62202;SDS011;48199;49.138;7.414;2023-11-21T14:30:23;2.33;;;1.25;;
62202;SDS011;48199;49.138;7.414;2023-11-21T14:32:49;1.55;;;1.08;;
62202;SDS011;48199;49.138;7.414;2023-11-21T14:35:15;3.92;;;1.38;;
62202;SDS011;48199;49.138;7.414;2023-11-21T14:37:41;2.30;;;1.02;;
62202;SDS011;48199;49.138;7.414;2023-11-21T14:40:07;1.35;;;1.10;;
62202;SDS011;48199;49.138;7.414;2023-11-21T14:42:33;2.95;;;1.00;;
62202;SDS011;48199;49.138;7.414;2023-11-21T14:44:59;2.40;;;1.27;;
62202;SDS011;48199;49.138;7.414;2023-11-21T14:47:28;6.47;;;1.38;;
62202;SDS011;48199;49.138;7.414;2023-11-21T14:49:53;4.37;;;2.13;;
62202;SDS011;48199;49.138;7.414;2023-11-21T14:52:21;3.55;;;1.92;;
62202;SDS011;48199;49.138;7.414;2023-11-21T14:55:05;5.05;;;1.70;;
62202;SDS011;48199;49.138;7.414;2023-11-21T14:57:46;5.90;;;1.70;;
62202;SDS011;48199;49.138;7.414;2023-11-21T15:00:18;4.40;;;1.75;;
62202;SDS011;48199;49.138;7.414;2023-11-21T15:03:01;3.50;;;1.65;;
62202;SDS011;48199;49.138;7.414;2023-11-21T15:05:27;2.03;;;1.30;;